Date/Time EDT BROAD KEY-Water Temp BROAD KEY-Linear Conductivity BROAD KEY-Non Linear Conductivity BROAD KEY-Water Level BROAD KEY-Salinity BROAD KEY-TDS BROAD KEY-Air Temp BROAD KEY-Water Temp in F BROAD KEY-Air Temp in F
27-Apr-2017 15:05 27.72 2,752.75 2,752.16 3.70 1.40 1,309.22 29.94 81.90 85.89
26-Apr-2017 06:20 25.27 2,681.37 2,682.37 4.11 1.32 1,233.15 21.76 77.49 71.17
26-Apr-2017 02:30 25.42 2,677.83 2,678.80 3.82 1.32 1,235.95 21.11 77.76 70.00
26-Apr-2017 02:15 25.45 2,659.88 2,660.83 3.91 1.31 1,228.48 21.35 77.81 70.43
24-Apr-2017 16:25 26.35 2,722.47 2,723.01 3.83 1.37 1,281.34 30.16 79.43 86.29
22-Apr-2017 09:10 24.07 2,758.66 2,759.75 4.36 1.37 1,282.92 24.79 75.33 76.62
21-Apr-2017 11:10 24.00 2,641.69 2,642.72 3.73 1.33 1,286.89 25.36 75.20 77.65
21-Apr-2017 05:15 23.86 2,662.65 2,663.65 4.58 1.35 1,309.76 23.51 74.95 74.32
21-Apr-2017 03:55 24.30 2,684.00 2,685.09 4.36 1.34 1,276.12 23.67 75.74 74.61
17-Apr-2017 03:25 24.04 2,662.62 2,663.67 4.52 1.32 1,266.74 24.01 75.27 75.22
17-Apr-2017 03:20 24.05 2,674.14 2,675.19 4.52 1.33 1,272.15 23.92 75.29 75.06
16-Apr-2017 05:05 23.30 2,627.97 2,628.76 4.13 1.36 1,335.76 23.60 73.94 74.48
16-Apr-2017 03:35 23.51 2,625.88 2,626.76 4.49 1.34 1,300.84 23.82 74.32 74.88
16-Apr-2017 03:25 23.53 2,617.22 2,618.10 4.54 1.34 1,295.39 23.77 74.35 74.79
16-Apr-2017 03:15 23.56 2,611.59 2,612.48 4.57 1.33 1,289.84 23.78 74.41 74.80
16-Apr-2017 03:10 23.61 2,602.88 2,603.79 4.60 1.33 1,287.38 23.84 74.50 74.91
16-Apr-2017 03:05 23.63 2,601.91 2,602.82 4.62 1.33 1,291.13 23.91 74.53 75.04
16-Apr-2017 01:50 23.71 2,622.20 2,623.15 4.73 1.35 1,323.09 24.06 74.68 75.31
16-Apr-2017 01:30 23.95 2,631.17 2,632.18 4.73 1.34 1,307.50 24.07 75.11 75.33
15-Apr-2017 23:35 23.78 2,644.48 2,645.45 4.44 1.38 1,345.15 24.04 74.80 75.27
15-Apr-2017 23:30 23.79 2,629.92 2,630.89 4.37 1.38 1,345.31 24.11 74.82 75.40
15-Apr-2017 21:35 23.88 2,625.17 2,626.17 3.96 1.35 1,317.31 24.14 74.98 75.45
15-Apr-2017 21:20 23.84 2,624.40 2,625.38 3.93 1.36 1,323.37 24.17 74.91 75.51
15-Apr-2017 20:55 23.88 2,628.13 2,629.12 3.81 1.35 1,310.92 24.22 74.98 75.60
15-Apr-2017 20:35 23.95 2,627.41 2,628.42 3.79 1.35 1,308.55 24.24 75.11 75.63
15-Apr-2017 20:25 23.98 2,623.76 2,624.77 3.80 1.34 1,304.03 24.24 75.16 75.63
15-Apr-2017 19:05 24.30 2,636.05 2,637.12 3.77 1.35 1,312.57 24.20 75.74 75.56
09-Apr-2017 06:25 22.93 2,842.48 2,843.11 4.00 1.48 1,443.79 21.21 73.27 70.18
08-Apr-2017 02:45 23.44 2,815.24 2,816.15 3.38 1.47 1,439.15 18.69 74.19 65.64
07-Apr-2017 02:50 26.04 2,924.13 2,924.91 3.35 1.44 1,339.78 20.49 78.87 68.88
06-Apr-2017 15:30 28.37 2,910.82 2,909.41 3.62 1.46 1,350.03 30.24 83.07 86.43
04-Apr-2017 02:20 26.23 2,879.75 2,880.40 4.00 1.43 1,331.93 25.45 79.21 77.81